Disclaimer

Please do not use the information listed here in-flight or in-navigation, as they are not provided to us by the airports but are provided by volunteers, so they might be outdated.

Search


Regions


Airport information page

Radio informations:
GRAF TWR - 31.8 MHz
PMSV METRO - 140.3 MHz
GRAF OPS - 44.55 MHz
Ground (GND) - 141.3 MHz
Approach (APP) - 138.25 MHz
GRAF RDO - 30.4 MHz

Airport informations:
Latitude: 49° 41' 55.27" N
Longitude: 011° 56' 24.63" E
Elevation: 1363 feet - 415 meters
Operating hours: 24 hour operations
Operating agency: U.S.ARMY
Timezone: UTC+1(+2DT) - Last Sunday in March to last Sunday in October
Fuel: JP-8, SemiKeroscene MIL Spec T-83133, without icing inhibitor

Runway information:
14/32 - 3300 x 73 feet< - >1006 x 22 meters

Recent METARs:
ETIC 170656Z AUTO 06006KT 9999 CLR 00/00 A3041 RMK AO2 SLP322 T00040001 CHINO RWY32 $
ETIC 170656Z AUTO 06006KT 9999 CLR 00/00 A3041 RMK AO2 SLP322 T00040001 CHINO RWY32 $
ETIC 170756Z AUTO 06005KT 9999 CLR 02/00 A3042 RMK AO2 SLP324 T00161002 CHINO RWY32 $

Airport on the map: